Time;durP1;ratioP1;P1;durP2;ratioP2;P2;SDS_P1;SDS_P2;PMS_P1;PMS_P2;Temp;Humidity;BMP_temperature;BMP_pressure;BME280_temperature;BME280_humidity;BME280_pressure;Samples;Min_cycle;Max_cycle;Signal;HPM_P1;HPM_P2
2022/04/22 00:01:42;;;;;;;10.27;5.85;;;13.70;58.50;;;;;;5114696;28;20036;-71
2022/04/22 00:04:07;;;;;;;10.35;6.22;;;13.70;58.50;;;;;;5114577;28;20087;-71
2022/04/22 00:06:33;;;;;;;7.70;5.45;;;13.70;58.50;;;;;;5114504;28;20028;-71
2022/04/22 00:08:58;;;;;;;14.30;6.68;;;13.70;58.50;;;;;;5114434;28;20020;-71
2022/04/22 00:11:30;;;;;;;10.48;6.25;;;13.70;58.80;;;;;;5113639;28;20058;-71
2022/04/22 00:13:58;;;;;;;10.10;5.65;;;13.60;59.20;;;;;;5114583;28;20506;-71
2022/04/22 00:16:25;;;;;;;9.88;5.88;;;13.60;59.40;;;;;;5114327;28;20025;-71
2022/04/22 00:18:51;;;;;;;10.95;6.32;;;13.50;59.70;;;;;;5096318;28;20068;-71
2022/04/22 00:21:16;;;;;;;10.25;6.30;;;13.50;59.60;;;;;;5114407;28;20032;-71
2022/04/22 00:23:42;;;;;;;11.75;6.78;;;13.50;59.70;;;;;;5114221;28;20028;-71
2022/04/22 00:26:08;;;;;;;13.68;6.93;;;13.50;59.90;;;;;;5096345;28;20020;-71
2022/04/22 00:28:34;;;;;;;11.18;5.85;;;13.40;60.10;;;;;;5114071;28;20412;-71
2022/04/22 00:30:59;;;;;;;10.43;6.00;;;13.40;60.00;;;;;;5114047;28;20032;-71
2022/04/22 00:33:25;;;;;;;10.80;6.72;;;13.50;60.10;;;;;;5114021;28;20112;-71
2022/04/22 00:35:52;;;;;;;8.82;6.07;;;13.40;60.80;;;;;;5096176;28;20047;-71
2022/04/22 00:38:17;;;;;;;10.07;6.13;;;13.40;60.50;;;;;;5114038;28;20058;-71
2022/04/22 00:40:43;;;;;;;13.27;6.35;;;13.40;60.40;;;;;;5114008;28;20032;-71
2022/04/22 00:43:20;;;;;;;13.50;6.18;;;13.40;61.00;;;;;;5113892;28;20029;-71
2022/04/22 00:45:46;;;;;;;11.75;6.15;;;13.30;60.80;;;;;;5113878;28;20036;-71
2022/04/22 00:48:12;;;;;;;11.57;7.00;;;13.30;60.70;;;;;;5113842;28;20076;-71
2022/04/22 00:50:39;;;;;;;11.00;6.95;;;13.30;61.10;;;;;;5113715;28;20024;-71
2022/04/22 00:53:06;;;;;;;12.73;7.07;;;13.30;61.20;;;;;;5113798;28;20050;-71
2022/04/22 00:55:32;;;;;;;9.80;6.72;;;13.30;61.40;;;;;;5113685;28;20032;-71
2022/04/22 00:57:59;;;;;;;12.23;6.95;;;13.20;61.80;;;;;;5113592;28;20041;-71
2022/04/22 01:00:25;;;;;;;10.93;6.75;;;13.20;61.60;;;;;;5095689;28;20016;-71
2022/04/22 01:02:50;;;;;;;10.68;7.30;;;13.20;61.50;;;;;;5113598;28;20046;-71
2022/04/22 01:10:45;;;;;;;10.55;6.70;;;13.00;62.30;;;;;;5113563;28;20444;-71
2022/04/22 01:13:10;;;;;;;11.95;6.75;;;13.10;62.40;;;;;;5113435;28;20025;-72
2022/04/22 01:15:36;;;;;;;10.65;6.97;;;13.00;62.40;;;;;;5113355;28;20107;-71
2022/04/22 01:18:03;;;;;;;10.05;6.30;;;13.10;62.10;;;;;;5113300;28;20038;-71
2022/04/22 01:20:28;;;;;;;10.93;6.82;;;13.10;62.00;;;;;;5113226;28;20044;-71
2022/04/22 01:22:54;;;;;;;10.90;6.90;;;13.10;62.40;;;;;;5117746;28;20118;-71
2022/04/22 01:25:20;;;;;;;13.60;7.20;;;13.00;62.70;;;;;;5120098;28;20027;-70
2022/04/22 01:27:50;;;;;;;11.02;7.05;;;13.00;62.90;;;;;;5120029;28;20025;-71
2022/04/22 01:30:22;;;;;;;10.57;7.20;;;12.90;64.00;;;;;;5119932;28;20107;-71
2022/04/22 01:32:52;;;;;;;11.20;6.80;;;12.90;63.10;;;;;;5120112;28;20158;-72
2022/04/22 01:35:18;;;;;;;12.52;6.80;;;12.90;63.70;;;;;;5120011;28;20052;-72
2022/04/22 01:37:45;;;;;;;12.35;7.55;;;12.80;63.70;;;;;;5120009;28;20050;-71
2022/04/22 01:40:11;;;;;;;10.38;7.00;;;12.80;63.70;;;;;;5119912;28;20115;-71
2022/04/22 01:42:37;;;;;;;15.30;7.63;;;12.80;63.50;;;;;;5119957;28;20035;-71
2022/04/22 01:45:04;;;;;;;10.65;6.63;;;12.90;63.40;;;;;;5102015;28;20020;-71
2022/04/22 01:47:30;;;;;;;12.10;7.53;;;12.90;63.10;;;;;;5101860;28;20024;-71
2022/04/22 01:49:56;;;;;;;11.70;7.38;;;12.90;63.40;;;;;;5119894;28;20039;-71
2022/04/22 01:52:23;;;;;;;12.95;7.13;;;12.90;64.50;;;;;;5101907;28;20043;-71
2022/04/22 01:54:51;;;;;;;12.85;7.95;;;12.80;63.80;;;;;;5119920;28;20046;-71
2022/04/22 01:57:20;;;;;;;13.07;7.22;;;12.80;63.60;;;;;;5119822;28;20052;-71
2022/04/22 01:59:46;;;;;;;13.27;7.05;;;12.80;63.70;;;;;;5119707;28;20088;-71
2022/04/22 02:02:13;;;;;;;11.68;6.80;;;12.80;63.50;;;;;;5119771;28;20047;-71
2022/04/22 02:04:39;;;;;;;12.52;7.60;;;12.80;63.90;;;;;;5101948;28;20053;-71
2022/04/22 02:07:05;;;;;;;14.38;7.85;;;12.80;63.80;;;;;;5119737;28;20021;-71
2022/04/22 02:09:31;;;;;;;13.43;7.97;;;12.70;63.70;;;;;;5119717;28;20045;-71
2022/04/22 02:11:57;;;;;;;11.05;7.20;;;12.80;63.80;;;;;;5119698;28;20024;-72
2022/04/22 02:14:23;;;;;;;11.60;7.70;;;12.80;63.80;;;;;;5119664;28;20035;-71
2022/04/22 02:16:48;;;;;;;13.68;7.68;;;12.70;63.70;;;;;;5119691;28;20020;-71
2022/04/22 02:19:14;;;;;;;13.07;7.53;;;12.70;64.00;;;;;;5119357;28;20078;-71
2022/04/22 02:21:41;;;;;;;10.23;7.03;;;12.60;64.10;;;;;;5119621;28;20012;-71
2022/04/22 02:24:07;;;;;;;11.68;7.18;;;12.60;65.30;;;;;;5119554;28;20035;-71
2022/04/22 02:28:31;;;;;;;13.32;8.00;;;12.60;64.10;;;;;;5119567;28;20083;-71
2022/04/22 02:29:19;;;;;;;12.80;7.43;;;12.60;64.40;;;;;;5119398;28;20043;-72
2022/04/22 02:31:44;;;;;;;13.75;7.85;;;12.50;64.40;;;;;;5119506;28;20058;-71
2022/04/22 02:34:10;;;;;;;12.35;7.53;;;12.50;64.60;;;;;;5116957;28;20032;-71
2022/04/22 02:36:35;;;;;;;14.75;8.43;;;12.50;64.50;;;;;;5098298;28;20028;-71
2022/04/22 02:39:01;;;;;;;12.52;8.25;;;12.50;64.80;;;;;;5116167;28;20036;-71
2022/04/22 02:46:55;;;;;;;13.40;8.48;;;12.60;64.50;;;;;;5116269;28;20042;-71
2022/04/22 02:49:21;;;;;;;13.77;7.82;;;12.60;64.40;;;;;;5116152;28;20048;-71
2022/04/22 02:51:46;;;;;;;13.38;8.02;;;12.50;64.60;;;;;;5098105;28;20051;-71
2022/04/22 02:54:12;;;;;;;14.88;9.00;;;12.50;64.50;;;;;;5115961;28;20036;-71
2022/04/22 02:56:38;;;;;;;16.50;8.32;;;12.50;64.80;;;;;;5116001;28;20498;-71
2022/04/22 02:59:05;;;;;;;14.20;8.70;;;12.40;65.70;;;;;;5115887;28;20043;-71
2022/04/22 03:01:30;;;;;;;16.38;9.02;;;12.40;64.80;;;;;;5115838;28;20020;-70
2022/04/22 03:03:56;;;;;;;14.40;8.32;;;12.50;64.80;;;;;;5115780;28;20051;-71
2022/04/22 03:06:24;;;;;;;14.80;8.18;;;12.50;64.50;;;;;;5115710;28;20048;-72
2022/04/22 03:08:50;;;;;;;15.10;8.40;;;12.50;64.60;;;;;;5115641;28;20103;-71
2022/04/22 03:11:21;;;;;;;15.57;8.20;;;12.50;64.70;;;;;;5115599;28;20024;-70
2022/04/22 03:13:51;;;;;;;14.07;8.32;;;12.50;64.60;;;;;;5115715;28;20027;-71
2022/04/22 03:16:23;;;;;;;13.38;8.35;;;12.50;64.50;;;;;;5115518;28;20032;-71
2022/04/22 03:18:48;;;;;;;14.88;8.65;;;12.50;64.50;;;;;;5115197;28;20035;-71
2022/04/22 03:21:14;;;;;;;15.63;8.35;;;12.50;64.50;;;;;;5115435;28;20024;-71
2022/04/22 03:23:40;;;;;;;13.15;8.35;;;12.50;64.70;;;;;;5115356;28;20043;-71
2022/04/22 03:26:05;;;;;;;13.10;7.93;;;12.40;64.90;;;;;;5115347;28;20040;-71
2022/04/22 03:28:31;;;;;;;14.77;8.35;;;12.40;64.80;;;;;;5115201;28;20024;-71
2022/04/22 03:30:56;;;;;;;13.68;8.27;;;12.50;64.70;;;;;;5115233;28;20537;-71
2022/04/22 03:33:22;;;;;;;15.15;8.70;;;12.50;64.60;;;;;;5115176;28;20032;-71
2022/04/22 03:35:50;;;;;;;14.07;8.70;;;12.40;64.80;;;;;;5115106;28;20028;-70
2022/04/22 03:38:19;;;;;;;13.70;8.73;;;12.50;64.90;;;;;;5114992;28;20027;-70
2022/04/22 03:40:46;;;;;;;14.15;8.73;;;12.40;64.90;;;;;;5114993;28;20054;-71
2022/04/22 03:43:11;;;;;;;14.75;8.55;;;12.40;64.90;;;;;;5115008;28;20020;-70
2022/04/22 03:45:37;;;;;;;16.27;8.88;;;12.40;65.00;;;;;;5113787;28;20040;-71
2022/04/22 03:48:06;;;;;;;17.75;9.05;;;12.50;65.00;;;;;;5115037;28;20023;-71
2022/04/22 03:50:31;;;;;;;14.70;8.48;;;12.50;65.20;;;;;;5114872;28;20048;-71
2022/04/22 03:52:57;;;;;;;15.57;9.15;;;12.50;65.20;;;;;;5096801;28;20032;-70
2022/04/22 03:55:23;;;;;;;16.10;9.00;;;12.40;65.00;;;;;;5114724;28;20028;-71
2022/04/22 04:00:33;;;;;;;15.57;9.18;;;12.30;65.70;;;;;;5114922;28;20110;-71
2022/04/22 04:02:59;;;;;;;16.55;9.02;;;12.30;65.60;;;;;;5114559;28;20024;-71
2022/04/22 04:05:24;;;;;;;14.10;8.80;;;12.20;65.60;;;;;;5114552;28;20045;-71
2022/04/22 04:07:50;;;;;;;14.20;8.45;;;12.30;65.80;;;;;;5114513;28;20039;-71
2022/04/22 04:16:00;;;;;;;14.13;8.15;;;12.20;65.90;;;;;;5114584;28;20043;-71
2022/04/22 04:18:34;;;;;;;16.75;8.15;;;12.20;66.40;;;;;;5114232;28;20035;-71
2022/04/22 04:23:46;;;;;;;13.80;8.27;;;12.10;66.80;;;;;;5114453;28;20387;-71
2022/04/22 04:26:13;;;;;;;17.52;9.00;;;12.00;66.90;;;;;;5114228;28;20024;-71
2022/04/22 04:28:39;;;;;;;13.63;8.63;;;12.00;67.40;;;;;;5096299;28;20028;-71
2022/04/22 04:31:07;;;;;;;14.43;8.23;;;11.90;67.20;;;;;;5096140;28;20032;-71
2022/04/22 04:33:33;;;;;;;14.82;8.82;;;12.00;67.40;;;;;;5114137;28;20028;-71
2022/04/22 04:35:59;;;;;;;16.08;8.90;;;12.00;67.40;;;;;;5113995;28;20020;-71
2022/04/22 04:38:27;;;;;;;15.27;8.60;;;11.90;67.80;;;;;;5113870;28;20038;-71
2022/04/22 04:40:53;;;;;;;14.52;9.35;;;12.00;68.10;;;;;;5114009;28;20028;-70
2022/04/22 04:43:19;;;;;;;18.45;9.52;;;11.90;68.30;;;;;;5114000;28;20028;-70
2022/04/22 04:45:47;;;;;;;16.17;9.57;;;11.90;68.60;;;;;;5113872;28;20042;-70
2022/04/22 04:48:13;;;;;;;18.17;10.50;;;11.90;69.40;;;;;;5113809;28;20024;-71
2022/04/22 04:50:40;;;;;;;19.73;10.23;;;11.80;69.80;;;;;;5113757;28;20024;-71
2022/04/22 04:53:06;;;;;;;16.45;9.90;;;11.80;70.60;;;;;;5113677;28;20016;-71
2022/04/22 04:55:32;;;;;;;16.73;10.27;;;11.70;70.70;;;;;;5113695;28;20020;-71
2022/04/22 04:57:58;;;;;;;18.42;10.68;;;11.70;70.80;;;;;;5113248;28;20024;-72
2022/04/22 05:00:24;;;;;;;20.38;11.48;;;11.70;70.90;;;;;;5113554;28;20078;-71
2022/04/22 05:02:49;;;;;;;20.10;10.23;;;11.80;71.10;;;;;;5113494;28;20016;-71
2022/04/22 05:05:15;;;;;;;21.20;11.68;;;11.70;72.40;;;;;;5113655;28;20466;-70
2022/04/22 05:07:57;;;;;;;23.77;11.73;;;11.80;72.10;;;;;;5113488;28;20020;-71
2022/04/22 05:10:23;;;;;;;20.63;10.90;;;11.70;72.20;;;;;;5113480;28;20020;-72
2022/04/22 05:12:50;;;;;;;20.90;10.85;;;11.70;72.00;;;;;;5113460;28;20024;-70
2022/04/22 05:15:19;;;;;;;16.90;10.20;;;11.70;72.00;;;;;;5113470;28;20029;-70
2022/04/22 05:17:47;;;;;;;20.35;11.68;;;11.80;72.00;;;;;;5113366;28;20482;-70
2022/04/22 05:20:14;;;;;;;25.55;12.32;;;11.80;72.00;;;;;;5113153;28;20094;-72
2022/04/22 05:22:41;;;;;;;24.40;10.93;;;11.80;72.10;;;;;;5113372;28;20020;-71
2022/04/22 05:25:08;;;;;;;18.90;11.38;;;11.80;72.10;;;;;;5113318;28;20046;-71
2022/04/22 05:27:34;;;;;;;20.63;11.40;;;11.90;72.50;;;;;;5113192;28;20016;-72
2022/04/22 05:32:48;;;;;;;18.88;11.00;;;11.80;73.00;;;;;;5113515;28;20063;-72
2022/04/22 05:35:19;;;;;;;19.33;12.45;;;11.80;73.00;;;;;;5113226;28;20032;-72
2022/04/22 05:37:50;;;;;;;19.13;11.23;;;11.80;73.00;;;;;;5113181;28;20032;-73
2022/04/22 05:40:18;;;;;;;19.98;12.00;;;11.90;73.20;;;;;;5113157;28;20031;-71
2022/04/22 05:42:45;;;;;;;19.63;11.73;;;11.80;73.10;;;;;;5113175;28;20024;-71
2022/04/22 05:45:12;;;;;;;19.95;11.93;;;11.90;73.70;;;;;;5113139;28;20026;-72
2022/04/22 05:47:38;;;;;;;18.63;11.25;;;11.90;73.50;;;;;;5113109;28;20045;-72
2022/04/22 05:50:05;;;;;;;19.85;11.65;;;12.00;73.50;;;;;;5113087;28;20038;-71
2022/04/22 05:52:35;;;;;;;20.92;11.88;;;12.00;73.50;;;;;;5095081;28;20035;-73
2022/04/22 05:55:02;;;;;;;19.92;12.07;;;12.00;74.10;;;;;;5113098;28;20029;-71
2022/04/22 05:57:32;;;;;;;21.05;12.70;;;12.00;74.00;;;;;;5112965;28;20024;-73
2022/04/22 06:00:07;;;;;;;22.02;11.82;;;12.00;74.00;;;;;;5113006;28;20052;-71
2022/04/22 06:02:34;;;;;;;22.98;11.55;;;12.10;74.40;;;;;;5112049;28;20035;-72
2022/04/22 06:04:59;;;;;;;19.80;11.45;;;12.10;74.70;;;;;;5113000;28;20027;-74
2022/04/22 06:07:25;;;;;;;20.00;11.98;;;12.10;74.60;;;;;;5094941;28;20024;-72
2022/04/22 06:12:35;;;;;;;21.15;12.02;;;12.10;75.10;;;;;;5116868;28;20047;-70
2022/04/22 06:15:02;;;;;;;20.67;11.60;;;12.10;75.30;;;;;;5116702;28;20047;-69
2022/04/22 06:17:29;;;;;;;20.10;12.23;;;12.10;75.20;;;;;;5116683;28;20032;-69
2022/04/22 06:19:56;;;;;;;19.60;11.77;;;12.10;75.70;;;;;;5116364;28;20046;-71
2022/04/22 06:22:21;;;;;;;20.85;13.02;;;12.10;75.10;;;;;;5116554;28;20024;-71
2022/04/22 06:24:47;;;;;;;23.00;12.43;;;12.20;75.00;;;;;;5116481;28;20104;-71
2022/04/22 06:27:13;;;;;;;25.73;12.52;;;12.20;75.20;;;;;;5116583;28;20043;-71
2022/04/22 06:29:38;;;;;;;21.92;12.85;;;12.30;75.30;;;;;;5116410;28;20046;-71
2022/04/22 06:32:05;;;;;;;30.27;13.15;;;12.40;75.10;;;;;;5098689;28;20028;-71
2022/04/22 06:34:31;;;;;;;26.70;13.90;;;12.40;75.20;;;;;;5116244;28;20055;-71
2022/04/22 06:36:58;;;;;;;22.08;12.07;;;12.40;75.40;;;;;;5098304;28;20054;-71
2022/04/22 06:39:24;;;;;;;20.30;12.73;;;12.40;74.90;;;;;;5116125;28;20027;-71
2022/04/22 06:47:18;;;;;;;22.70;12.60;;;12.50;74.90;;;;;;5116168;28;20043;-71
2022/04/22 06:49:44;;;;;;;21.27;12.93;;;12.50;75.20;;;;;;5116057;28;20024;-71
2022/04/22 06:52:10;;;;;;;19.88;12.85;;;12.50;74.80;;;;;;5116171;28;20032;-71
2022/04/22 06:54:36;;;;;;;23.10;13.07;;;12.50;75.50;;;;;;5098003;28;20047;-71
2022/04/22 06:57:03;;;;;;;20.98;13.02;;;12.60;75.10;;;;;;5115951;28;20028;-71
2022/04/22 06:59:31;;;;;;;20.23;12.45;;;12.60;75.50;;;;;;5115768;28;20016;-71
2022/04/22 07:01:57;;;;;;;21.70;13.05;;;12.70;74.60;;;;;;5115777;28;20020;-71
2022/04/22 07:04:24;;;;;;;21.40;12.77;;;12.80;75.20;;;;;;5115755;28;20021;-71
2022/04/22 07:06:50;;;;;;;23.10;13.15;;;12.90;75.00;;;;;;5115757;28;20023;-71
2022/04/22 07:09:16;;;;;;;20.42;11.82;;;12.90;74.50;;;;;;5115640;28;20028;-71
2022/04/22 07:11:44;;;;;;;21.30;12.52;;;13.00;74.10;;;;;;5115645;28;20028;-71
2022/04/22 07:14:10;;;;;;;21.40;11.68;;;13.10;74.00;;;;;;5115703;28;20028;-71
2022/04/22 07:16:42;;;;;;;20.70;12.38;;;13.10;73.20;;;;;;5115654;28;20024;-71
2022/04/22 07:19:08;;;;;;;19.27;12.38;;;13.10;73.80;;;;;;5115351;28;20127;-71
2022/04/22 07:21:34;;;;;;;19.83;12.27;;;13.20;73.60;;;;;;5097365;28;20028;-71
2022/04/22 07:23:59;;;;;;;19.40;12.05;;;13.20;72.90;;;;;;5115371;28;20070;-71
2022/04/22 07:26:26;;;;;;;23.17;12.90;;;13.10;72.70;;;;;;5115293;28;20044;-71
2022/04/22 07:28:52;;;;;;;20.02;12.43;;;13.10;73.10;;;;;;5115207;28;20079;-71
2022/04/22 07:31:18;;;;;;;19.42;12.02;;;13.10;73.10;;;;;;5115205;28;20028;-71
2022/04/22 07:33:44;;;;;;;22.73;12.00;;;13.10;73.30;;;;;;5115182;28;20024;-71
2022/04/22 07:36:10;;;;;;;19.73;12.38;;;13.10;73.60;;;;;;5115188;28;20039;-71
2022/04/22 07:38:36;;;;;;;20.90;12.40;;;13.20;73.60;;;;;;5115153;28;20040;-71
2022/04/22 07:41:02;;;;;;;21.23;12.23;;;13.20;73.10;;;;;;5115054;28;20028;-71
2022/04/22 07:48:57;;;;;;;18.77;12.45;;;13.10;72.90;;;;;;5115006;28;20043;-70
2022/04/22 07:51:25;;;;;;;19.30;12.70;;;13.20;73.20;;;;;;5114844;28;20024;-71
2022/04/22 07:53:51;;;;;;;22.58;13.18;;;13.20;72.80;;;;;;5114825;28;20045;-71
2022/04/22 07:56:17;;;;;;;21.13;12.70;;;13.20;73.10;;;;;;5114853;28;20024;-71
2022/04/22 07:58:43;;;;;;;19.63;12.27;;;13.20;73.10;;;;;;5114661;28;20403;-71
2022/04/22 08:01:09;;;;;;;22.17;12.65;;;13.20;73.30;;;;;;5114696;28;20043;-70
2022/04/22 08:03:36;;;;;;;23.23;12.18;;;13.20;72.70;;;;;;5114650;28;20021;-71
2022/04/22 08:06:03;;;;;;;21.75;13.00;;;13.30;73.00;;;;;;5096567;28;20008;-71
2022/04/22 08:08:30;;;;;;;21.92;13.18;;;13.30;72.90;;;;;;5114483;28;20028;-71
2022/04/22 08:10:56;;;;;;;22.33;13.57;;;13.40;73.20;;;;;;5114613;28;20053;-70
2022/04/22 08:13:24;;;;;;;19.38;12.02;;;13.50;72.90;;;;;;5114434;28;20027;-71
2022/04/22 08:15:50;;;;;;;18.42;11.48;;;13.70;72.80;;;;;;5114478;28;20390;-71
2022/04/22 08:18:16;;;;;;;17.85;11.07;;;13.80;72.40;;;;;;5114302;28;20024;-71
2022/04/22 08:20:41;;;;;;;19.90;11.70;;;14.00;71.80;;;;;;5114119;28;20055;-71
2022/04/22 08:23:07;;;;;;;21.80;12.02;;;14.20;71.10;;;;;;5114305;28;20024;-70
2022/04/22 08:25:33;;;;;;;22.33;13.07;;;14.30;70.90;;;;;;5114216;28;20020;-70
2022/04/22 08:27:58;;;;;;;20.65;12.60;;;14.40;70.80;;;;;;5114143;28;20527;-71
2022/04/22 08:30:25;;;;;;;19.55;12.90;;;14.40;69.00;;;;;;5114107;28;20020;-71
2022/04/22 08:32:51;;;;;;;17.00;11.32;;;14.50;68.80;;;;;;5113352;28;20574;-71
2022/04/22 08:35:17;;;;;;;20.48;12.65;;;14.50;68.10;;;;;;5114037;28;20032;-70
2022/04/22 08:37:44;;;;;;;20.88;11.90;;;14.50;68.20;;;;;;5114021;28;20028;-70
2022/04/22 08:40:11;;;;;;;21.08;12.63;;;14.60;68.50;;;;;;5113863;28;20023;-70
2022/04/22 08:42:38;;;;;;;19.90;12.38;;;14.70;68.20;;;;;;5113989;28;20023;-71
2022/04/22 08:45:06;;;;;;;19.40;12.05;;;14.90;68.10;;;;;;5113894;28;20020;-71
2022/04/22 08:50:19;;;;;;;20.30;11.63;;;15.20;66.50;;;;;;5113939;28;20035;-71
2022/04/22 08:53:06;;;;;;;16.65;11.77;;;15.20;66.10;;;;;;5113781;28;20050;-71
2022/04/22 08:55:33;;;;;;;18.08;11.40;;;15.30;67.20;;;;;;5113696;28;20042;-70
2022/04/22 08:58:00;;;;;;;16.77;11.23;;;15.40;66.60;;;;;;5095657;28;20115;-70
2022/04/22 09:00:29;;;;;;;17.05;11.32;;;15.60;65.30;;;;;;5113560;28;20031;-71
2022/04/22 09:02:56;;;;;;;16.33;9.98;;;15.70;65.30;;;;;;5113568;28;20043;-71
2022/04/22 09:05:22;;;;;;;23.02;10.15;;;15.70;63.70;;;;;;5113559;28;20024;-71
2022/04/22 09:07:49;;;;;;;15.27;10.65;;;15.80;64.30;;;;;;5113515;28;20071;-71
2022/04/22 09:10:14;;;;;;;13.60;8.98;;;15.90;64.50;;;;;;5113526;28;20020;-71
2022/04/22 09:12:54;;;;;;;13.73;8.77;;;16.00;64.00;;;;;;5113520;28;20054;-71
2022/04/22 09:15:25;;;;;;;16.10;9.32;;;16.10;61.90;;;;;;5095699;28;20114;-71
2022/04/22 09:17:57;;;;;;;14.48;9.43;;;16.20;63.00;;;;;;5113417;28;20028;-70
2022/04/22 09:20:31;;;;;;;15.73;9.48;;;16.20;61.90;;;;;;5113169;28;20055;-71
2022/04/22 09:22:57;;;;;;;15.25;9.80;;;16.30;61.20;;;;;;5095536;28;20024;-71
2022/04/22 09:25:25;;;;;;;16.23;10.82;;;16.30;60.00;;;;;;5095405;28;20024;-70
2022/04/22 09:27:51;;;;;;;17.52;10.20;;;16.30;61.50;;;;;;5113299;28;20043;-71
2022/04/22 09:30:17;;;;;;;14.48;9.60;;;16.30;60.70;;;;;;5113296;28;20028;-71
2022/04/22 09:32:44;;;;;;;14.55;10.48;;;16.10;60.20;;;;;;5113286;28;20028;-71
2022/04/22 09:35:10;;;;;;;14.75;10.40;;;16.10;60.40;;;;;;5113292;28;20020;-71
2022/04/22 09:43:38;;;;;;;12.80;9.50;;;16.00;59.80;;;;;;5115191;28;20116;-71
2022/04/22 09:46:05;;;;;;;14.95;10.10;;;16.20;58.60;;;;;;5117369;28;20020;-71
2022/04/22 09:48:44;;;;;;;16.08;9.90;;;16.20;58.70;;;;;;5117197;28;20024;-71
2022/04/22 09:51:26;;;;;;;13.60;9.25;;;16.10;58.10;;;;;;5117237;28;20028;-71
2022/04/22 09:54:10;;;;;;;14.68;9.43;;;16.10;58.20;;;;;;5117258;28;20046;-71
2022/04/22 09:56:38;;;;;;;14.93;9.90;;;16.10;57.40;;;;;;5117185;28;20028;-71
2022/04/22 09:59:23;;;;;;;14.85;9.98;;;16.10;57.70;;;;;;5117067;28;20032;-71
2022/04/22 10:01:49;;;;;;;13.30;9.27;;;16.20;56.80;;;;;;5117010;28;20030;-71
2022/04/22 10:04:17;;;;;;;15.02;10.27;;;16.30;57.40;;;;;;5116975;28;20043;-71
2022/04/22 10:06:44;;;;;;;17.80;11.20;;;16.40;58.90;;;;;;5116911;28;20028;-71
2022/04/22 10:09:11;;;;;;;16.95;10.27;;;16.50;58.90;;;;;;5116829;28;20028;-71
2022/04/22 10:11:39;;;;;;;15.57;11.05;;;16.40;58.30;;;;;;5116832;28;20072;-70
2022/04/22 10:14:11;;;;;;;16.20;10.85;;;16.40;57.40;;;;;;5116728;28;20031;-70
2022/04/22 10:16:38;;;;;;;17.30;10.23;;;16.30;56.30;;;;;;5116866;28;20094;-71
2022/04/22 10:19:05;;;;;;;16.80;11.00;;;16.20;56.60;;;;;;5116349;28;20040;-71
2022/04/22 10:21:31;;;;;;;17.08;11.02;;;16.20;56.20;;;;;;5116672;28;20024;-71
2022/04/22 10:23:58;;;;;;;17.25;11.25;;;16.10;57.00;;;;;;5116566;28;20088;-70
2022/04/22 10:26:26;;;;;;;16.83;10.13;;;16.00;59.00;;;;;;5116502;28;20049;-70
2022/04/22 10:28:53;;;;;;;16.73;10.52;;;16.00;58.90;;;;;;5116205;28;20040;-70
2022/04/22 10:31:21;;;;;;;17.08;11.23;;;16.00;59.60;;;;;;5116487;28;20035;-70
2022/04/22 10:33:47;;;;;;;18.70;10.98;;;16.10;59.70;;;;;;5116371;28;20031;-70
2022/04/22 10:36:16;;;;;;;19.58;11.25;;;16.00;59.60;;;;;;5116368;28;20028;-70
2022/04/22 10:38:49;;;;;;;15.30;10.70;;;16.00;58.50;;;;;;5116203;28;20038;-70
2022/04/22 10:41:21;;;;;;;16.67;10.82;;;16.00;58.70;;;;;;5116288;28;20065;-71
2022/04/22 10:47:13;;;;;;;;;;;15.90;58.40;;;;;;5116598;28;20017;-70
2022/04/22 10:49:19;;;;;;;16.63;10.85;;;15.70;58.60;;;;;;5116110;28;20525;-70
2022/04/22 10:52:11;;;;;;;19.20;11.00;;;15.70;59.20;;;;;;5116070;28;20048;-70
2022/04/22 10:54:55;;;;;;;23.33;11.20;;;15.70;60.00;;;;;;5115445;28;20049;-70
2022/04/22 10:57:35;;;;;;;15.27;10.35;;;15.70;59.60;;;;;;5115993;28;20031;-70
2022/04/22 11:00:12;;;;;;;16.23;10.32;;;15.70;59.50;;;;;;5116014;28;20032;-70
2022/04/22 11:02:40;;;;;;;16.83;11.07;;;15.70;60.20;;;;;;5115808;28;20016;-70
2022/04/22 11:05:20;;;;;;;14.70;10.43;;;15.70;60.30;;;;;;5115788;28;20024;-71
2022/04/22 11:07:53;;;;;;;18.50;10.75;;;15.80;59.40;;;;;;5097714;28;20028;-71
2022/04/22 11:10:45;;;;;;;17.70;11.18;;;15.80;59.50;;;;;;5115685;28;20070;-71
2022/04/22 11:13:29;;;;;;;16.50;10.52;;;15.80;59.00;;;;;;5112549;28;20036;-71
2022/04/22 11:16:07;;;;;;;15.20;9.75;;;15.70;59.80;;;;;;5115781;28;20035;-70
2022/04/22 11:18:39;;;;;;;14.40;9.90;;;15.80;59.70;;;;;;5115363;28;20032;-70
2022/04/22 11:21:17;;;;;;;14.35;9.60;;;15.80;59.70;;;;;;5115354;28;20035;-70
2022/04/22 11:23:46;;;;;;;18.08;10.40;;;15.80;59.70;;;;;;5115461;28;20054;-71
2022/04/22 11:26:16;;;;;;;15.88;9.90;;;15.80;59.30;;;;;;5115509;28;20031;-71
2022/04/22 11:28:45;;;;;;;13.30;9.45;;;15.90;59.70;;;;;;5115257;28;20542;-71
2022/04/22 11:31:12;;;;;;;16.30;9.70;;;15.80;58.60;;;;;;5115298;28;20048;-71
2022/04/22 11:33:40;;;;;;;14.93;9.02;;;15.80;58.80;;;;;;5115219;28;20024;-71
2022/04/22 11:36:06;;;;;;;13.73;9.32;;;15.90;58.60;;;;;;5115205;28;20058;-70
2022/04/22 11:38:32;;;;;;;14.60;8.85;;;15.90;58.70;;;;;;5115067;28;20024;-70
2022/04/22 11:40:58;;;;;;;13.07;9.32;;;15.90;59.10;;;;;;5115063;28;20050;-71
2022/04/22 11:43:28;;;;;;;15.15;9.23;;;16.00;58.80;;;;;;5115061;28;20028;-71
2022/04/22 11:45:54;;;;;;;15.93;8.52;;;16.10;58.00;;;;;;5097018;28;20401;-71
2022/04/22 11:48:24;;;;;;;15.30;9.82;;;16.00;57.80;;;;;;5114941;28;20032;-71
2022/04/22 11:50:49;;;;;;;13.30;9.52;;;16.10;56.90;;;;;;5114915;28;20026;-71
2022/04/22 11:53:17;;;;;;;15.70;9.70;;;16.00;56.00;;;;;;5114858;28;20043;-71
2022/04/22 11:55:44;;;;;;;16.08;9.38;;;16.00;56.50;;;;;;5114779;28;20028;-72
2022/04/22 11:58:20;;;;;;;13.60;8.75;;;16.00;57.10;;;;;;5114796;28;20036;-71
2022/04/22 12:06:17;;;;;;;12.70;8.68;;;15.90;57.20;;;;;;5113810;28;20109;-71
2022/04/22 12:08:55;;;;;;;12.98;8.30;;;15.90;57.70;;;;;;5114376;28;20028;-70
2022/04/22 12:11:22;;;;;;;18.05;8.98;;;15.90;56.90;;;;;;5114504;28;20025;-71
2022/04/22 12:13:48;;;;;;;12.23;8.38;;;15.80;57.40;;;;;;5114341;28;20044;-70
2022/04/22 12:16:26;;;;;;;13.90;8.77;;;15.80;57.60;;;;;;5114245;28;20024;-71
2022/04/22 12:18:56;;;;;;;13.80;8.77;;;15.90;57.10;;;;;;5114308;28;20028;-70
2022/04/22 12:21:23;;;;;;;11.57;8.15;;;15.90;57.20;;;;;;5114117;28;20065;-71
2022/04/22 12:23:51;;;;;;;14.60;8.95;;;15.90;57.40;;;;;;5114151;28;20016;-71
2022/04/22 12:26:22;;;;;;;13.95;9.18;;;16.00;57.30;;;;;;5114118;28;20023;-71
2022/04/22 12:29:07;;;;;;;12.75;8.65;;;16.00;57.10;;;;;;5114042;28;20024;-71
2022/04/22 12:31:33;;;;;;;13.40;8.80;;;16.00;58.90;;;;;;5114204;28;20091;-71
2022/04/22 12:34:03;;;;;;;14.38;8.13;;;16.10;58.10;;;;;;5114021;28;20429;-71
2022/04/22 12:36:34;;;;;;;14.00;9.10;;;16.30;57.50;;;;;;5114060;28;20028;-71
2022/04/22 12:38:59;;;;;;;11.35;8.20;;;16.40;57.40;;;;;;5096751;28;20044;-71
2022/04/22 12:41:25;;;;;;;13.23;8.70;;;16.60;57.40;;;;;;5113962;28;20024;-71
2022/04/22 12:43:53;;;;;;;14.40;9.07;;;16.80;56.50;;;;;;5113924;28;20154;-71
2022/04/22 12:52:23;;;;;;;12.43;8.30;;;16.90;56.50;;;;;;5114045;28;20042;-71
2022/04/22 12:54:49;;;;;;;11.75;8.15;;;17.00;53.80;;;;;;5113783;28;20072;-71
2022/04/22 12:57:22;;;;;;;13.75;8.77;;;17.00;55.40;;;;;;5113698;28;20079;-70
2022/04/22 12:59:49;;;;;;;14.30;8.13;;;17.20;55.10;;;;;;5113619;28;20028;-71
2022/04/22 13:02:15;;;;;;;13.77;8.82;;;17.30;54.20;;;;;;5113631;28;20044;-70
2022/04/22 13:05:03;;;;;;;14.35;8.77;;;17.30;54.20;;;;;;5113640;28;20023;-70
2022/04/22 13:07:42;;;;;;;12.10;7.85;;;17.40;54.40;;;;;;5113585;28;20076;-71
2022/04/22 13:10:10;;;;;;;11.63;8.05;;;17.30;52.20;;;;;;5113548;28;20420;-71
2022/04/22 13:12:39;;;;;;;13.90;8.23;;;17.30;53.80;;;;;;5113548;28;20028;-71
2022/04/22 13:15:07;;;;;;;12.63;8.38;;;17.30;53.30;;;;;;5113464;28;20024;-71
2022/04/22 13:17:39;;;;;;;13.00;7.97;;;17.40;52.70;;;;;;5113136;28;20024;-71
2022/04/22 13:20:06;;;;;;;12.15;7.93;;;17.30;52.70;;;;;;5113171;28;20048;-70
2022/04/22 13:22:32;;;;;;;15.10;8.30;;;17.30;53.70;;;;;;5113432;28;20024;-70
2022/04/22 13:24:59;;;;;;;13.05;9.00;;;17.40;53.70;;;;;;5113387;28;20383;-71
2022/04/22 13:27:24;;;;;;;13.20;8.85;;;17.40;53.00;;;;;;5113358;28;20076;-71
2022/04/22 13:29:50;;;;;;;17.48;9.38;;;17.40;52.80;;;;;;5113253;28;20036;-71
2022/04/22 13:32:15;;;;;;;14.77;8.68;;;17.40;52.60;;;;;;5113268;28;20055;-71
2022/04/22 13:34:41;;;;;;;13.80;8.32;;;17.40;53.30;;;;;;5113286;28;20039;-71
2022/04/22 13:37:07;;;;;;;12.25;8.68;;;17.40;52.10;;;;;;5113264;28;20032;-71
2022/04/22 13:39:35;;;;;;;15.15;8.27;;;17.40;52.70;;;;;;5113098;28;20074;-71